createdAt,value
2023-02-02T00:01:09.822Z,51.01
2023-02-02T00:04:23.894Z,51.14
2023-02-02T00:07:33.714Z,51.07
2023-02-02T00:10:48.552Z,50.39
2023-02-02T00:13:52.486Z,49.93
2023-02-02T00:17:01.379Z,49.43
2023-02-02T00:20:08.823Z,50.07
2023-02-02T00:23:23.153Z,50.72
2023-02-02T00:26:33.620Z,50.90
2023-02-02T00:29:42.612Z,50.75
2023-02-02T00:32:51.157Z,50.69
2023-02-02T00:36:06.827Z,50.51
2023-02-02T00:39:18.077Z,51.08
2023-02-02T00:42:31.744Z,51.18
2023-02-02T00:45:46.058Z,51.93
2023-02-02T00:48:50.478Z,51.92
2023-02-02T00:52:00.841Z,52.75
2023-02-02T00:55:13.792Z,52.37
2023-02-02T00:58:27.868Z,52.83
2023-02-02T01:01:44.056Z,52.77
2023-02-02T01:04:53.337Z,52.43
2023-02-02T01:08:08.809Z,53.19
2023-02-02T01:11:14.108Z,52.89
2023-02-02T01:14:36.696Z,52.59
2023-02-02T01:17:44.709Z,52.74
2023-02-02T01:21:00.437Z,52.17
2023-02-02T01:24:05.053Z,51.51
2023-02-02T01:27:09.742Z,52.31
2023-02-02T01:30:16.002Z,53.26
2023-02-02T01:33:20.703Z,52.51
2023-02-02T01:36:25.438Z,52.80
2023-02-02T01:39:30.189Z,52.53
2023-02-02T01:42:36.440Z,52.44
2023-02-02T01:45:51.240Z,53.42
2023-02-02T01:49:07.804Z,54.44
2023-02-02T01:52:13.935Z,53.90
2023-02-02T01:55:27.298Z,52.79
2023-02-02T01:58:36.295Z,51.47
2023-02-02T02:01:40.532Z,51.49
2023-02-02T02:04:44.586Z,52.37
2023-02-02T02:07:52.715Z,52.45
2023-02-02T02:10:57.403Z,53.46
2023-02-02T02:14:32.203Z,53.07
2023-02-02T02:18:17.496Z,52.63
2023-02-02T02:21:59.852Z,52.49
2023-02-02T02:25:51.132Z,51.06
2023-02-02T02:29:53.357Z,51.38
2023-02-02T02:33:07.800Z,52.28
2023-02-02T02:36:20.093Z,51.01
2023-02-02T02:40:07.305Z,50.33
2023-02-02T02:43:28.312Z,50.23
2023-02-02T02:46:33.546Z,51.43
2023-02-02T02:49:46.710Z,52.22
2023-02-02T02:53:12.197Z,52.83
2023-02-02T02:56:37.611Z,52.60
2023-02-02T03:00:07.499Z,51.88
2023-02-02T03:03:35.776Z,51.88
2023-02-02T03:06:47.386Z,51.63
2023-02-02T03:09:56.961Z,53.45
2023-02-02T03:13:13.828Z,53.71
2023-02-02T03:16:18.393Z,53.47
2023-02-02T03:19:22.794Z,52.64
2023-02-02T03:22:27.404Z,54.33
2023-02-02T03:25:40.104Z,54.63
2023-02-02T03:28:56.782Z,55.28
2023-02-02T03:32:11.877Z,55.83
2023-02-02T03:35:23.723Z,57.39
2023-02-02T03:38:28.263Z,57.21
2023-02-02T03:41:32.523Z,56.24
2023-02-02T03:44:37.172Z,55.83
2023-02-02T03:47:41.655Z,55.13
2023-02-02T03:50:45.591Z,53.83
2023-02-02T03:54:03.099Z,52.83
2023-02-02T03:57:10.044Z,51.92
2023-02-02T04:00:16.260Z,50.79
2023-02-02T04:03:31.503Z,52.14
2023-02-02T04:06:45.960Z,51.96
2023-02-02T04:09:55.362Z,52.38
2023-02-02T04:12:59.805Z,51.74
2023-02-02T04:16:04.690Z,51.30
2023-02-02T04:19:10.120Z,50.42
2023-02-02T04:22:17.224Z,50.82
2023-02-02T04:25:31.661Z,49.57
2023-02-02T04:28:35.592Z,48.42
2023-02-02T04:31:43.612Z,49.87
2023-02-02T04:34:48.496Z,51.16
2023-02-02T04:37:52.657Z,50.17
2023-02-02T04:40:57.165Z,50.00
2023-02-02T04:44:17.480Z,49.07
2023-02-02T04:47:21.444Z,48.97
2023-02-02T04:50:27.105Z,49.73
2023-02-02T04:53:31.720Z,50.42
2023-02-02T04:56:35.748Z,49.69
2023-02-02T04:59:44.942Z,48.82
2023-02-02T05:02:49.460Z,49.59
2023-02-02T05:06:06.571Z,48.25
2023-02-02T05:09:12.434Z,47.48
2023-02-02T05:12:18.799Z,47.31
2023-02-02T05:15:23.689Z,47.23
2023-02-02T05:18:32.612Z,46.84
2023-02-02T05:21:36.838Z,47.26
2023-02-02T05:24:45.661Z,46.76
2023-02-02T05:27:51.573Z,46.16
2023-02-02T05:30:56.466Z,46.05
2023-02-02T05:34:07.283Z,46.05
2023-02-02T05:37:21.123Z,46.36
2023-02-02T05:40:30.925Z,45.98
2023-02-02T05:43:36.298Z,46.71
2023-02-02T05:46:42.376Z,47.49
2023-02-02T05:49:46.479Z,46.90
2023-02-02T05:53:00.542Z,46.99
2023-02-02T05:56:16.213Z,47.52
2023-02-02T05:59:20.192Z,46.62
2023-02-02T06:02:29.756Z,46.53
2023-02-02T06:05:33.668Z,47.44
2023-02-02T06:08:40.916Z,47.04
2023-02-02T06:11:50.242Z,46.76
2023-02-02T06:14:59.296Z,47.14
2023-02-02T06:18:03.708Z,46.43
2023-02-02T06:21:08.173Z,45.58
2023-02-02T06:24:12.255Z,45.79
2023-02-02T06:27:22.146Z,45.62
2023-02-02T06:30:27.863Z,46.14
2023-02-02T06:33:37.094Z,46.24
2023-02-02T06:36:42.515Z,46.03
2023-02-02T06:39:50.836Z,45.72
2023-02-02T06:43:04.197Z,45.84
2023-02-02T06:46:13.631Z,45.76
2023-02-02T06:49:18.495Z,46.56
2023-02-02T06:52:22.967Z,45.61
2023-02-02T06:55:28.641Z,46.09
2023-02-02T06:58:43.520Z,46.20
2023-02-02T07:01:59.255Z,45.99
2023-02-02T07:05:02.951Z,44.99
2023-02-02T07:08:18.130Z,45.09
2023-02-02T07:11:23.456Z,44.44
2023-02-02T07:14:28.644Z,46.28
2023-02-02T07:17:33.171Z,45.31
2023-02-02T07:20:41.055Z,44.46
2023-02-02T07:23:44.928Z,44.01
2023-02-02T07:26:50.286Z,43.27
2023-02-02T07:29:55.348Z,42.79
2023-02-02T07:33:02.346Z,43.69
2023-02-02T07:36:08.130Z,43.83
2023-02-02T07:39:21.850Z,44.11
2023-02-02T07:42:26.694Z,43.83
2023-02-02T07:45:33.391Z,43.93
2023-02-02T07:48:41.018Z,44.21
2023-02-02T07:51:49.641Z,43.88
2023-02-02T07:54:59.937Z,44.33
2023-02-02T07:58:20.376Z,44.70
2023-02-02T08:01:29.495Z,45.31
2023-02-02T08:04:34.798Z,45.26
2023-02-02T08:07:40.438Z,45.44
2023-02-02T08:10:55.084Z,45.46
2023-02-02T08:14:01.833Z,45.79
2023-02-02T08:17:12.554Z,46.05
2023-02-02T08:20:17.131Z,45.61
2023-02-02T08:23:24.159Z,46.39
2023-02-02T08:26:30.416Z,45.60
2023-02-02T08:29:39.163Z,45.87
2023-02-02T08:32:48.299Z,45.90
2023-02-02T08:35:56.823Z,46.21
2023-02-02T08:39:03.297Z,45.78
2023-02-02T08:42:08.923Z,46.12
2023-02-02T08:46:02.074Z,46.15
2023-02-02T08:48:51.973Z,45.66
2023-02-02T08:52:06.701Z,44.78
2023-02-02T08:55:11.278Z,44.63
2023-02-02T08:58:23.637Z,44.09
2023-02-02T09:01:37.962Z,44.61
2023-02-02T09:04:45.748Z,44.53
2023-02-02T09:07:50.369Z,44.31
2023-02-02T09:10:55.759Z,44.57
2023-02-02T09:14:03.015Z,44.14
2023-02-02T09:17:13.052Z,44.95
2023-02-02T09:20:28.191Z,44.90
2023-02-02T09:23:34.099Z,44.15
2023-02-02T09:26:40.804Z,44.47
2023-02-02T09:29:45.156Z,44.48
2023-02-02T09:32:51.542Z,44.48
2023-02-02T09:35:57.004Z,45.27
2023-02-02T09:39:16.960Z,45.94
2023-02-02T09:42:31.121Z,45.58
2023-02-02T09:46:01.610Z,46.46
2023-02-02T09:49:17.918Z,46.37
2023-02-02T09:52:30.629Z,46.71
2023-02-02T09:55:44.074Z,45.91
2023-02-02T09:58:55.256Z,46.16
2023-02-02T10:02:24.667Z,47.21
2023-02-02T10:05:56.087Z,47.30
2023-02-02T10:09:31.163Z,47.84
2023-02-02T10:12:48.100Z,47.98
2023-02-02T10:16:04.279Z,47.30
2023-02-02T10:19:14.589Z,47.10
2023-02-02T10:22:24.403Z,47.26
2023-02-02T10:25:30.512Z,47.33
2023-02-02T10:28:55.565Z,47.85
2023-02-02T10:32:26.270Z,49.40
2023-02-02T10:35:43.656Z,48.61
2023-02-02T10:39:00.104Z,47.94
2023-02-02T10:42:20.517Z,47.54
2023-02-02T10:45:24.800Z,47.91
2023-02-02T10:48:36.072Z,47.26
2023-02-02T10:51:42.735Z,46.52
2023-02-02T10:54:58.901Z,47.33
2023-02-02T10:58:12.959Z,46.74
2023-02-02T11:01:18.604Z,45.85
2023-02-02T11:04:41.965Z,45.70
2023-02-02T11:07:57.057Z,45.37
2023-02-02T11:11:13.884Z,45.05
2023-02-02T11:14:45.230Z,45.67
2023-02-02T11:18:16.422Z,45.75
2023-02-02T11:21:28.399Z,45.97
2023-02-02T11:24:47.812Z,45.82
2023-02-02T11:27:52.505Z,46.19
2023-02-02T11:31:03.104Z,45.46
2023-02-02T11:34:27.430Z,46.07
2023-02-02T11:38:11.148Z,45.49
2023-02-02T11:41:17.593Z,45.92
2023-02-02T11:44:28.068Z,45.97
2023-02-02T11:47:39.924Z,46.93
2023-02-02T11:50:55.831Z,46.70
2023-02-02T11:54:15.362Z,46.70
2023-02-02T11:57:31.011Z,46.34
2023-02-02T12:00:51.266Z,46.85
2023-02-02T12:04:05.072Z,46.88
2023-02-02T12:07:33.436Z,46.61
2023-02-02T12:10:48.175Z,46.55
2023-02-02T12:14:01.408Z,46.82
2023-02-02T12:17:11.095Z,46.54
2023-02-02T12:20:52.465Z,46.55
2023-02-02T12:24:14.249Z,47.10
2023-02-02T12:27:42.683Z,48.67
2023-02-02T12:31:28.376Z,48.11
2023-02-02T12:34:58.449Z,47.29
2023-02-02T12:38:32.341Z,47.00
2023-02-02T12:42:00.437Z,46.88
2023-02-02T12:45:30.187Z,47.08
2023-02-02T12:49:11.782Z,47.12
2023-02-02T12:52:33.130Z,49.21
2023-02-02T12:55:45.365Z,49.54
2023-02-02T12:59:55.722Z,48.95
2023-02-02T13:07:40.481Z,48.50
2023-02-02T13:10:56.419Z,48.67
2023-02-02T13:14:09.077Z,49.66
2023-02-02T13:17:19.089Z,49.07
2023-02-02T13:20:51.328Z,48.67
2023-02-02T13:24:03.436Z,48.06
2023-02-02T13:27:19.059Z,47.91
2023-02-02T13:30:36.936Z,47.49
2023-02-02T13:33:44.162Z,48.00
2023-02-02T13:37:14.955Z,47.77
2023-02-02T13:40:28.405Z,48.28
2023-02-02T13:43:57.523Z,48.24
2023-02-02T13:47:29.817Z,48.31
2023-02-02T13:50:51.748Z,47.90
2023-02-02T13:54:55.728Z,47.51
2023-02-02T13:58:22.155Z,47.05
2023-02-02T14:01:26.919Z,47.71
2023-02-02T14:04:37.460Z,48.53
2023-02-02T14:07:47.619Z,48.26
2023-02-02T14:10:55.005Z,48.91
2023-02-02T14:14:35.674Z,50.25
2023-02-02T14:17:40.891Z,50.89
2023-02-02T14:20:50.867Z,50.39
2023-02-02T14:23:56.763Z,49.84
2023-02-02T14:27:11.499Z,49.59
2023-02-02T14:30:23.278Z,49.77
2023-02-02T14:33:40.291Z,49.43
2023-02-02T14:37:17.719Z,50.43
2023-02-02T14:40:57.673Z,49.10
2023-02-02T14:44:13.045Z,48.39
2023-02-02T14:47:46.371Z,47.66
2023-02-02T14:50:58.698Z,47.63
2023-02-02T14:54:07.536Z,47.85
2023-02-02T14:57:28.198Z,47.73
2023-02-02T15:00:35.914Z,48.29
2023-02-02T15:03:57.247Z,48.12
2023-02-02T15:07:24.121Z,48.73
2023-02-02T15:10:54.775Z,48.29
2023-02-02T15:14:07.560Z,47.83
2023-02-02T15:17:40.249Z,47.91
2023-02-02T15:21:00.621Z,47.20
2023-02-02T15:24:07.552Z,47.81
2023-02-02T15:27:18.360Z,47.73
2023-02-02T15:30:31.081Z,47.68
2023-02-02T15:33:45.633Z,47.99
2023-02-02T15:36:55.050Z,47.67
2023-02-02T15:40:03.311Z,47.50
2023-02-02T15:43:13.988Z,46.85
2023-02-02T15:46:29.721Z,46.22
2023-02-02T15:49:36.598Z,46.30
2023-02-02T15:52:52.519Z,46.37
2023-02-02T15:55:58.286Z,46.79
2023-02-02T15:59:02.986Z,46.45
2023-02-02T16:02:10.276Z,46.48
2023-02-02T16:05:26.386Z,46.24
2023-02-02T16:08:40.740Z,46.01
2023-02-02T16:11:46.910Z,45.42
2023-02-02T16:14:54.697Z,45.85
2023-02-02T16:18:24.843Z,45.93
2023-02-02T16:21:31.760Z,45.55
2023-02-02T16:24:43.742Z,45.41
2023-02-02T16:28:03.947Z,46.32
2023-02-02T16:31:08.169Z,46.02
2023-02-02T16:34:47.108Z,45.91
2023-02-02T16:37:51.563Z,45.83
2023-02-02T16:41:15.379Z,45.98
2023-02-02T16:44:37.927Z,45.64
2023-02-02T16:47:42.291Z,44.92
2023-02-02T16:51:06.553Z,45.24
2023-02-02T16:54:10.778Z,45.71
2023-02-02T16:57:34.201Z,45.29
2023-02-02T17:00:40.182Z,44.65
2023-02-02T17:03:56.209Z,45.97
2023-02-02T17:07:13.990Z,45.86
2023-02-02T17:10:36.663Z,44.90
2023-02-02T17:13:42.075Z,44.33
2023-02-02T17:16:46.846Z,43.98
2023-02-02T17:19:51.383Z,44.19
2023-02-02T17:23:07.278Z,45.45
2023-02-02T17:26:13.824Z,44.66
2023-02-02T17:29:27.091Z,46.74
2023-02-02T17:32:41.252Z,46.94
2023-02-02T17:35:54.942Z,47.30
2023-02-02T17:39:00.761Z,47.33
2023-02-02T17:42:06.753Z,46.33
2023-02-02T17:45:20.834Z,46.61
2023-02-02T17:48:30.091Z,46.50
2023-02-02T17:51:41.382Z,46.10
2023-02-02T17:54:56.714Z,46.04
2023-02-02T17:58:01.526Z,46.33
2023-02-02T18:01:05.769Z,45.62
2023-02-02T18:04:20.072Z,45.95
2023-02-02T18:07:34.955Z,44.91
2023-02-02T18:10:42.063Z,45.24
2023-02-02T18:13:46.598Z,45.38
2023-02-02T18:16:56.708Z,44.67
2023-02-02T18:20:06.980Z,46.45
2023-02-02T18:23:12.099Z,46.02
2023-02-02T18:26:23.148Z,46.85
2023-02-02T18:29:27.021Z,45.96
2023-02-02T18:32:30.739Z,45.29
2023-02-02T18:35:35.012Z,45.36
2023-02-02T18:38:46.977Z,45.33
2023-02-02T18:41:50.701Z,45.50
2023-02-02T18:44:54.664Z,45.66
2023-02-02T18:48:04.513Z,44.94
2023-02-02T18:51:17.030Z,45.47
2023-02-02T18:54:20.924Z,46.97
2023-02-02T18:57:27.093Z,46.29
2023-02-02T19:00:42.481Z,46.32
2023-02-02T19:04:00.003Z,46.52
2023-02-02T19:07:22.378Z,46.26
2023-02-02T19:10:29.348Z,45.70
2023-02-02T19:13:43.240Z,46.16
2023-02-02T19:17:01.797Z,47.36
2023-02-02T19:20:24.887Z,47.00
2023-02-02T19:23:35.379Z,46.84
2023-02-02T19:26:51.407Z,46.08
2023-02-02T19:30:00.434Z,45.92
2023-02-02T19:33:12.374Z,46.30
2023-02-02T19:36:24.858Z,45.90
2023-02-02T19:39:32.279Z,46.30
2023-02-02T19:42:57.061Z,46.57
2023-02-02T19:46:17.252Z,46.67
2023-02-02T19:49:34.757Z,46.60
2023-02-02T19:53:06.907Z,46.68
2023-02-02T19:56:38.652Z,46.40
2023-02-02T19:59:51.055Z,46.01
2023-02-02T20:02:59.657Z,46.82
2023-02-02T20:06:05.383Z,47.05
2023-02-02T20:09:17.844Z,46.18
2023-02-02T20:12:31.364Z,46.07
2023-02-02T20:15:45.022Z,46.07
2023-02-02T20:18:55.127Z,45.54
2023-02-02T20:21:58.997Z,46.01
2023-02-02T20:25:07.339Z,45.55
2023-02-02T20:28:42.114Z,45.32
2023-02-02T20:31:47.963Z,45.00
2023-02-02T20:34:53.468Z,45.61
2023-02-02T20:37:57.897Z,45.56
2023-02-02T20:41:02.834Z,46.26
2023-02-02T20:44:08.657Z,46.04
2023-02-02T20:47:14.082Z,45.81
2023-02-02T20:50:21.158Z,45.97
2023-02-02T20:53:35.775Z,45.90
2023-02-02T20:56:39.585Z,45.66
2023-02-02T20:59:44.513Z,45.61
2023-02-02T21:02:49.056Z,46.18
2023-02-02T21:06:03.111Z,45.51
2023-02-02T21:09:09.268Z,46.27
2023-02-02T21:12:14.260Z,46.09
2023-02-02T21:15:18.711Z,44.79
2023-02-02T21:18:32.533Z,45.15
2023-02-02T21:21:36.915Z,45.40
2023-02-02T21:24:45.964Z,45.38
2023-02-02T21:27:49.575Z,45.05
2023-02-02T21:30:59.850Z,45.10
2023-02-02T21:34:03.629Z,45.23
2023-02-02T21:37:16.495Z,45.15
2023-02-02T21:40:30.121Z,45.18
2023-02-02T21:43:39.824Z,44.94
2023-02-02T21:46:51.443Z,45.11
2023-02-02T21:50:37.671Z,45.47
2023-02-02T21:53:41.698Z,45.88
2023-02-02T21:56:56.546Z,45.94
2023-02-02T22:00:01.791Z,46.33
2023-02-02T22:03:34.117Z,46.06
2023-02-02T22:06:42.628Z,45.90
2023-02-02T22:09:54.761Z,45.92
2023-02-02T22:13:19.329Z,46.88
2023-02-02T22:16:23.610Z,46.05
2023-02-02T22:19:38.513Z,45.97
2023-02-02T22:22:53.283Z,46.51
2023-02-02T22:25:59.334Z,46.08
2023-02-02T22:29:18.111Z,45.79
2023-02-02T22:32:27.383Z,45.79
2023-02-02T22:35:35.792Z,45.90
2023-02-02T22:38:39.759Z,46.77
2023-02-02T22:41:54.242Z,46.27
2023-02-02T22:44:58.138Z,46.29
2023-02-02T22:48:03.184Z,46.74
2023-02-02T22:51:07.576Z,45.88
2023-02-02T22:54:21.304Z,47.18
2023-02-02T22:57:25.745Z,48.43
2023-02-02T23:00:33.353Z,49.74
2023-02-02T23:03:38.092Z,48.90
2023-02-02T23:06:47.329Z,49.51
2023-02-02T23:09:56.330Z,49.52
2023-02-02T23:13:06.399Z,48.41
2023-02-02T23:16:11.302Z,47.41
2023-02-02T23:19:21.045Z,47.00
2023-02-02T23:22:25.060Z,46.73
2023-02-02T23:25:29.509Z,46.58
2023-02-02T23:28:33.667Z,46.72
2023-02-02T23:31:38.150Z,46.16
2023-02-02T23:34:47.344Z,46.61
2023-02-02T23:38:01.610Z,47.41
2023-02-02T23:41:10.999Z,46.91
2023-02-02T23:44:24.847Z,47.02
2023-02-02T23:47:29.895Z,46.71
2023-02-02T23:50:38.334Z,46.12
2023-02-02T23:53:43.207Z,46.99
2023-02-02T23:56:50.870Z,47.15
2023-02-02T23:59:55.497Z,47.24
